青島 の空港の天気 - METARとTAF

青島流亭国際空港 ( ZSQD / TAO ) - 中国 山東省青島市
飛行場実況気象(Metar)
観測時間06/01 06:00 CST (05/31 22:00 UTC)
風向・風速北東 1m/s
視程10km以上
天気現象
なし
気温16℃
湿度82%
気圧1011hPa
METARZSQD 312200Z 04001MPS CAVOK 16/13 Q1011 NOSIG
過去の天気等 Google飛行場航空写真 Wunderground天気予報

過去48時間のMETAR

飛行場予報(TAF)
発表時間: 5/31 23:15 CST (5/31 15:15 UTC)
予報対象時間: 1日2時 CST ~ 2日2時 CST
風向・風速北 3m/s
視程5000m
天気現象もや
なし
1日9時 CST ~ 1日10時 CST に徐々に
風向・風速南 7m/s
TAF ZSQD 311515Z 3118/0118 36003MPS 5000 BR NSC TX27/0106Z TN15/3121Z
BECMG 0101/0102 18007MPS